sensor_id;sensor_type;location;lat;lon;timestamp;temperature;humidity
8105;DHT22;4095;48.942;9.104;2022-07-22T00:02:16;21.90;96.10
8105;DHT22;4095;48.942;9.104;2022-07-22T00:04:42;21.90;96.10
8105;DHT22;4095;48.942;9.104;2022-07-22T00:07:07;21.90;96.40
8105;DHT22;4095;48.942;9.104;2022-07-22T00:09:33;21.90;96.30
8105;DHT22;4095;48.942;9.104;2022-07-22T00:11:59;21.90;96.40
8105;DHT22;4095;48.942;9.104;2022-07-22T00:14:25;21.80;96.40
8105;DHT22;4095;48.942;9.104;2022-07-22T00:16:50;21.80;96.60
8105;DHT22;4095;48.942;9.104;2022-07-22T00:19:16;21.70;96.60
8105;DHT22;4095;48.942;9.104;2022-07-22T00:21:42;21.80;96.90
8105;DHT22;4095;48.942;9.104;2022-07-22T00:24:07;21.80;97.00
8105;DHT22;4095;48.942;9.104;2022-07-22T00:26:33;21.80;97.20
8105;DHT22;4095;48.942;9.104;2022-07-22T00:28:59;21.70;97.20
8105;DHT22;4095;48.942;9.104;2022-07-22T00:31:24;21.70;97.20
8105;DHT22;4095;48.942;9.104;2022-07-22T00:33:50;21.70;97.20
8105;DHT22;4095;48.942;9.104;2022-07-22T00:36:16;21.60;97.20
8105;DHT22;4095;48.942;9.104;2022-07-22T00:38:41;21.60;97.10
8105;DHT22;4095;48.942;9.104;2022-07-22T00:41:07;21.60;97.20
8105;DHT22;4095;48.942;9.104;2022-07-22T00:46:17;21.50;97.40
8105;DHT22;4095;48.942;9.104;2022-07-22T00:48:43;21.60;97.50
8105;DHT22;4095;48.942;9.104;2022-07-22T00:51:09;21.50;97.20
8105;DHT22;4095;48.942;9.104;2022-07-22T00:53:35;21.50;97.30
8105;DHT22;4095;48.942;9.104;2022-07-22T00:56:02;21.50;97.20
8105;DHT22;4095;48.942;9.104;2022-07-22T00:58:27;21.40;97.20
8105;DHT22;4095;48.942;9.104;2022-07-22T01:00:53;21.30;97.30
8105;DHT22;4095;48.942;9.104;2022-07-22T01:03:19;21.30;97.20
8105;DHT22;4095;48.942;9.104;2022-07-22T01:05:44;21.30;97.10
8105;DHT22;4095;48.942;9.104;2022-07-22T01:08:10;21.30;97.20
8105;DHT22;4095;48.942;9.104;2022-07-22T01:10:35;21.30;97.10
8105;DHT22;4095;48.942;9.104;2022-07-22T01:13:01;21.20;97.20
8105;DHT22;4095;48.942;9.104;2022-07-22T01:15:26;21.20;97.40
8105;DHT22;4095;48.942;9.104;2022-07-22T01:17:52;21.20;97.60
8105;DHT22;4095;48.942;9.104;2022-07-22T01:20:18;21.20;97.80
8105;DHT22;4095;48.942;9.104;2022-07-22T01:22:43;21.10;97.80
8105;DHT22;4095;48.942;9.104;2022-07-22T01:25:11;21.10;98.00
8105;DHT22;4095;48.942;9.104;2022-07-22T01:27:36;21.10;98.00
8105;DHT22;4095;48.942;9.104;2022-07-22T01:30:04;21.10;98.00
8105;DHT22;4095;48.942;9.104;2022-07-22T01:32:30;21.10;97.70
8105;DHT22;4095;48.942;9.104;2022-07-22T01:34:55;21.10;97.70
8105;DHT22;4095;48.942;9.104;2022-07-22T01:37:21;21.10;97.60
8105;DHT22;4095;48.942;9.104;2022-07-22T01:39:48;21.10;97.70
8105;DHT22;4095;48.942;9.104;2022-07-22T01:42:14;21.10;97.80
8105;DHT22;4095;48.942;9.104;2022-07-22T01:44:39;21.10;97.60
8105;DHT22;4095;48.942;9.104;2022-07-22T01:47:05;21.10;97.70
8105;DHT22;4095;48.942;9.104;2022-07-22T01:49:31;21.00;97.70
8105;DHT22;4095;48.942;9.104;2022-07-22T01:51:56;21.00;97.80
8105;DHT22;4095;48.942;9.104;2022-07-22T01:54:22;21.00;97.70
8105;DHT22;4095;48.942;9.104;2022-07-22T01:56:48;21.00;98.00
8105;DHT22;4095;48.942;9.104;2022-07-22T01:59:14;21.00;98.10
8105;DHT22;4095;48.942;9.104;2022-07-22T02:01:39;20.90;98.10
8105;DHT22;4095;48.942;9.104;2022-07-22T02:04:05;20.90;98.10
8105;DHT22;4095;48.942;9.104;2022-07-22T02:06:30;20.90;98.20
8105;DHT22;4095;48.942;9.104;2022-07-22T02:08:56;20.90;98.30
8105;DHT22;4095;48.942;9.104;2022-07-22T02:11:22;20.90;98.20
8105;DHT22;4095;48.942;9.104;2022-07-22T02:13:47;20.90;98.30
8105;DHT22;4095;48.942;9.104;2022-07-22T02:16:13;20.90;98.40
8105;DHT22;4095;48.942;9.104;2022-07-22T02:18:38;20.90;98.40
8105;DHT22;4095;48.942;9.104;2022-07-22T02:21:04;20.90;98.40
8105;DHT22;4095;48.942;9.104;2022-07-22T02:23:30;20.90;98.40
8105;DHT22;4095;48.942;9.104;2022-07-22T02:25:55;20.90;98.50
8105;DHT22;4095;48.942;9.104;2022-07-22T02:28:21;20.80;98.60
8105;DHT22;4095;48.942;9.104;2022-07-22T02:30:47;20.80;98.60
8105;DHT22;4095;48.942;9.104;2022-07-22T02:33:12;20.80;98.60
8105;DHT22;4095;48.942;9.104;2022-07-22T02:35:39;20.80;98.50
8105;DHT22;4095;48.942;9.104;2022-07-22T02:38:06;20.80;98.50
8105;DHT22;4095;48.942;9.104;2022-07-22T02:40:32;20.70;98.40
8105;DHT22;4095;48.942;9.104;2022-07-22T02:42:58;20.70;98.60
8105;DHT22;4095;48.942;9.104;2022-07-22T02:45:24;20.70;98.60
8105;DHT22;4095;48.942;9.104;2022-07-22T02:47:52;20.70;98.60
8105;DHT22;4095;48.942;9.104;2022-07-22T02:50:18;20.70;98.80
8105;DHT22;4095;48.942;9.104;2022-07-22T02:52:44;20.60;98.70
8105;DHT22;4095;48.942;9.104;2022-07-22T02:55:10;20.60;98.60
8105;DHT22;4095;48.942;9.104;2022-07-22T02:57:36;20.60;98.70
8105;DHT22;4095;48.942;9.104;2022-07-22T03:00:03;20.60;98.70
8105;DHT22;4095;48.942;9.104;2022-07-22T03:02:29;20.60;98.80
8105;DHT22;4095;48.942;9.104;2022-07-22T03:04:55;20.60;98.70
8105;DHT22;4095;48.942;9.104;2022-07-22T03:07:21;20.60;98.60
8105;DHT22;4095;48.942;9.104;2022-07-22T03:09:46;20.60;98.60
8105;DHT22;4095;48.942;9.104;2022-07-22T03:12:12;20.60;98.70
8105;DHT22;4095;48.942;9.104;2022-07-22T03:14:37;20.50;98.70
8105;DHT22;4095;48.942;9.104;2022-07-22T03:17:03;20.50;98.60
8105;DHT22;4095;48.942;9.104;2022-07-22T03:19:29;20.50;98.80
8105;DHT22;4095;48.942;9.104;2022-07-22T03:21:54;20.50;98.70
8105;DHT22;4095;48.942;9.104;2022-07-22T03:24:20;20.50;98.70
8105;DHT22;4095;48.942;9.104;2022-07-22T03:26:45;20.50;98.80
8105;DHT22;4095;48.942;9.104;2022-07-22T03:29:11;20.50;98.70
8105;DHT22;4095;48.942;9.104;2022-07-22T03:31:37;20.40;98.80
8105;DHT22;4095;48.942;9.104;2022-07-22T03:34:02;20.40;98.80
8105;DHT22;4095;48.942;9.104;2022-07-22T03:36:28;20.50;98.70
8105;DHT22;4095;48.942;9.104;2022-07-22T03:38:55;20.40;98.70
8105;DHT22;4095;48.942;9.104;2022-07-22T03:41:21;20.40;98.80
8105;DHT22;4095;48.942;9.104;2022-07-22T03:43:47;20.40;98.90
8105;DHT22;4095;48.942;9.104;2022-07-22T03:46:13;20.40;99.00
8105;DHT22;4095;48.942;9.104;2022-07-22T03:48:38;20.40;98.90
8105;DHT22;4095;48.942;9.104;2022-07-22T03:51:04;20.40;98.90
8105;DHT22;4095;48.942;9.104;2022-07-22T03:53:30;20.40;98.90
8105;DHT22;4095;48.942;9.104;2022-07-22T03:55:55;20.30;99.10
8105;DHT22;4095;48.942;9.104;2022-07-22T03:58:21;20.30;99.00
8105;DHT22;4095;48.942;9.104;2022-07-22T04:00:47;20.30;98.80
8105;DHT22;4095;48.942;9.104;2022-07-22T04:03:12;20.30;99.00
8105;DHT22;4095;48.942;9.104;2022-07-22T04:05:38;20.30;98.90
8105;DHT22;4095;48.942;9.104;2022-07-22T04:08:03;20.30;98.80
8105;DHT22;4095;48.942;9.104;2022-07-22T04:10:29;20.30;98.70
8105;DHT22;4095;48.942;9.104;2022-07-22T04:12:55;20.20;98.70
8105;DHT22;4095;48.942;9.104;2022-07-22T04:15:20;20.20;98.90
8105;DHT22;4095;48.942;9.104;2022-07-22T04:17:46;20.20;99.00
8105;DHT22;4095;48.942;9.104;2022-07-22T04:20:11;20.20;98.90
8105;DHT22;4095;48.942;9.104;2022-07-22T04:22:37;20.20;98.80
8105;DHT22;4095;48.942;9.104;2022-07-22T04:25:03;20.20;98.90
8105;DHT22;4095;48.942;9.104;2022-07-22T04:27:29;20.20;99.00
8105;DHT22;4095;48.942;9.104;2022-07-22T04:29:54;20.20;99.10
8105;DHT22;4095;48.942;9.104;2022-07-22T04:32:20;20.20;99.00
8105;DHT22;4095;48.942;9.104;2022-07-22T04:34:46;20.30;99.10
8105;DHT22;4095;48.942;9.104;2022-07-22T04:37:11;20.30;99.00
8105;DHT22;4095;48.942;9.104;2022-07-22T04:39:37;20.30;99.00
8105;DHT22;4095;48.942;9.104;2022-07-22T04:42:02;20.30;99.10
8105;DHT22;4095;48.942;9.104;2022-07-22T04:44:28;20.30;99.10
8105;DHT22;4095;48.942;9.104;2022-07-22T04:46:54;20.30;99.20
8105;DHT22;4095;48.942;9.104;2022-07-22T04:49:19;20.40;99.20
8105;DHT22;4095;48.942;9.104;2022-07-22T04:51:45;20.30;99.00
8105;DHT22;4095;48.942;9.104;2022-07-22T04:54:10;20.40;99.00
8105;DHT22;4095;48.942;9.104;2022-07-22T04:56:36;20.40;99.10
8105;DHT22;4095;48.942;9.104;2022-07-22T04:59:02;20.40;99.10
8105;DHT22;4095;48.942;9.104;2022-07-22T05:01:27;20.50;99.20
8105;DHT22;4095;48.942;9.104;2022-07-22T05:03:53;20.60;99.50
8105;DHT22;4095;48.942;9.104;2022-07-22T05:06:18;20.60;99.30
8105;DHT22;4095;48.942;9.104;2022-07-22T05:08:44;20.70;99.30
8105;DHT22;4095;48.942;9.104;2022-07-22T05:11:10;20.70;99.10
8105;DHT22;4095;48.942;9.104;2022-07-22T05:13:35;20.80;99.30
8105;DHT22;4095;48.942;9.104;2022-07-22T05:16:05;20.80;99.00
8105;DHT22;4095;48.942;9.104;2022-07-22T05:18:31;20.90;99.10
8105;DHT22;4095;48.942;9.104;2022-07-22T05:20:56;20.90;99.20
8105;DHT22;4095;48.942;9.104;2022-07-22T05:23:22;21.00;99.00
8105;DHT22;4095;48.942;9.104;2022-07-22T05:25:47;21.00;98.90
8105;DHT22;4095;48.942;9.104;2022-07-22T05:28:13;21.10;98.90
8105;DHT22;4095;48.942;9.104;2022-07-22T05:30:38;21.10;99.20
8105;DHT22;4095;48.942;9.104;2022-07-22T05:33:04;21.20;99.00
8105;DHT22;4095;48.942;9.104;2022-07-22T05:35:30;21.20;99.00
8105;DHT22;4095;48.942;9.104;2022-07-22T05:37:55;21.30;99.10
8105;DHT22;4095;48.942;9.104;2022-07-22T05:40:21;21.30;98.90
8105;DHT22;4095;48.942;9.104;2022-07-22T05:42:47;21.40;98.80
8105;DHT22;4095;48.942;9.104;2022-07-22T05:45:12;21.50;98.60
8105;DHT22;4095;48.942;9.104;2022-07-22T05:47:38;21.60;98.70
8105;DHT22;4095;48.942;9.104;2022-07-22T05:50:04;21.60;98.90
8105;DHT22;4095;48.942;9.104;2022-07-22T05:52:30;21.70;98.80
8105;DHT22;4095;48.942;9.104;2022-07-22T05:54:55;21.70;98.70
8105;DHT22;4095;48.942;9.104;2022-07-22T05:57:21;21.80;98.40
8105;DHT22;4095;48.942;9.104;2022-07-22T05:59:46;21.90;98.60
8105;DHT22;4095;48.942;9.104;2022-07-22T06:02:12;22.00;98.60
8105;DHT22;4095;48.942;9.104;2022-07-22T06:04:38;22.00;98.60
8105;DHT22;4095;48.942;9.104;2022-07-22T06:07:03;22.20;98.80
8105;DHT22;4095;48.942;9.104;2022-07-22T06:09:31;22.20;98.30
8105;DHT22;4095;48.942;9.104;2022-07-22T06:11:57;22.20;97.80
8105;DHT22;4095;48.942;9.104;2022-07-22T06:14:23;22.30;98.20
8105;DHT22;4095;48.942;9.104;2022-07-22T06:16:48;22.30;98.20
8105;DHT22;4095;48.942;9.104;2022-07-22T06:19:14;22.30;98.00
8105;DHT22;4095;48.942;9.104;2022-07-22T06:21:40;22.40;98.30
8105;DHT22;4095;48.942;9.104;2022-07-22T06:24:06;22.50;98.20
8105;DHT22;4095;48.942;9.104;2022-07-22T06:26:32;22.50;97.80
8105;DHT22;4095;48.942;9.104;2022-07-22T06:28:57;22.60;97.90
8105;DHT22;4095;48.942;9.104;2022-07-22T06:31:23;22.60;98.10
8105;DHT22;4095;48.942;9.104;2022-07-22T06:33:48;22.70;97.90
8105;DHT22;4095;48.942;9.104;2022-07-22T06:36:14;22.80;97.90
8105;DHT22;4095;48.942;9.104;2022-07-22T06:38:40;22.90;98.00
8105;DHT22;4095;48.942;9.104;2022-07-22T06:41:06;22.90;97.60
8105;DHT22;4095;48.942;9.104;2022-07-22T06:43:31;23.00;97.50
8105;DHT22;4095;48.942;9.104;2022-07-22T06:45:57;23.00;97.40
8105;DHT22;4095;48.942;9.104;2022-07-22T06:48:22;23.00;97.20
8105;DHT22;4095;48.942;9.104;2022-07-22T06:50:48;23.10;97.00
8105;DHT22;4095;48.942;9.104;2022-07-22T06:53:14;23.20;97.30
8105;DHT22;4095;48.942;9.104;2022-07-22T06:55:39;23.20;97.20
8105;DHT22;4095;48.942;9.104;2022-07-22T06:58:05;23.20;97.10
8105;DHT22;4095;48.942;9.104;2022-07-22T07:00:31;23.30;96.60
8105;DHT22;4095;48.942;9.104;2022-07-22T07:03:00;23.40;96.70
8105;DHT22;4095;48.942;9.104;2022-07-22T07:05:26;23.40;96.70
8105;DHT22;4095;48.942;9.104;2022-07-22T07:07:54;23.40;96.80
8105;DHT22;4095;48.942;9.104;2022-07-22T07:10:20;23.50;96.90
8105;DHT22;4095;48.942;9.104;2022-07-22T07:12:45;23.60;96.50
8105;DHT22;4095;48.942;9.104;2022-07-22T07:15:11;23.60;96.10
8105;DHT22;4095;48.942;9.104;2022-07-22T07:17:37;23.60;96.30
8105;DHT22;4095;48.942;9.104;2022-07-22T07:20:04;23.70;96.90
8105;DHT22;4095;48.942;9.104;2022-07-22T07:22:30;23.80;96.50
8105;DHT22;4095;48.942;9.104;2022-07-22T07:24:55;23.80;96.30
8105;DHT22;4095;48.942;9.104;2022-07-22T07:27:21;23.90;96.40
8105;DHT22;4095;48.942;9.104;2022-07-22T07:29:46;24.00;96.30
8105;DHT22;4095;48.942;9.104;2022-07-22T07:32:12;24.00;96.00
8105;DHT22;4095;48.942;9.104;2022-07-22T07:34:38;24.10;96.20
8105;DHT22;4095;48.942;9.104;2022-07-22T07:37:04;24.20;96.60
8105;DHT22;4095;48.942;9.104;2022-07-22T07:39:29;24.30;95.80
8105;DHT22;4095;48.942;9.104;2022-07-22T07:41:55;24.30;95.70
8105;DHT22;4095;48.942;9.104;2022-07-22T07:44:20;24.30;95.40
8105;DHT22;4095;48.942;9.104;2022-07-22T07:46:46;24.30;94.90
8105;DHT22;4095;48.942;9.104;2022-07-22T07:49:12;24.30;94.70
8105;DHT22;4095;48.942;9.104;2022-07-22T07:51:37;24.40;95.20
8105;DHT22;4095;48.942;9.104;2022-07-22T07:54:03;24.50;95.00
8105;DHT22;4095;48.942;9.104;2022-07-22T07:56:29;24.50;94.90
8105;DHT22;4095;48.942;9.104;2022-07-22T07:58:54;24.70;95.00
8105;DHT22;4095;48.942;9.104;2022-07-22T08:01:20;24.70;94.80
8105;DHT22;4095;48.942;9.104;2022-07-22T08:03:45;24.80;94.90
8105;DHT22;4095;48.942;9.104;2022-07-22T08:06:11;25.00;94.70
8105;DHT22;4095;48.942;9.104;2022-07-22T08:08:36;25.00;94.20
8105;DHT22;4095;48.942;9.104;2022-07-22T08:11:02;25.10;94.00
8105;DHT22;4095;48.942;9.104;2022-07-22T08:13:28;25.10;93.90
8105;DHT22;4095;48.942;9.104;2022-07-22T08:15:54;25.20;94.00
8105;DHT22;4095;48.942;9.104;2022-07-22T08:18:20;25.20;93.70
8105;DHT22;4095;48.942;9.104;2022-07-22T08:20:46;25.30;93.80
8105;DHT22;4095;48.942;9.104;2022-07-22T08:23:12;25.30;93.40
8105;DHT22;4095;48.942;9.104;2022-07-22T08:25:38;25.30;93.60
8105;DHT22;4095;48.942;9.104;2022-07-22T08:28:03;25.50;94.00
8105;DHT22;4095;48.942;9.104;2022-07-22T08:30:29;25.60;94.00
8105;DHT22;4095;48.942;9.104;2022-07-22T08:32:55;25.80;93.50
8105;DHT22;4095;48.942;9.104;2022-07-22T08:35:21;25.80;93.10
8105;DHT22;4095;48.942;9.104;2022-07-22T08:37:47;25.90;93.40
8105;DHT22;4095;48.942;9.104;2022-07-22T08:40:15;26.00;93.00
8105;DHT22;4095;48.942;9.104;2022-07-22T08:42:43;26.00;93.20
8105;DHT22;4095;48.942;9.104;2022-07-22T08:45:09;26.00;91.90
8105;DHT22;4095;48.942;9.104;2022-07-22T08:47:36;26.10;92.90
8105;DHT22;4095;48.942;9.104;2022-07-22T08:50:03;26.20;92.50
8105;DHT22;4095;48.942;9.104;2022-07-22T08:52:28;26.30;92.70
8105;DHT22;4095;48.942;9.104;2022-07-22T08:54:55;26.50;92.90
8105;DHT22;4095;48.942;9.104;2022-07-22T08:57:20;26.50;92.20
8105;DHT22;4095;48.942;9.104;2022-07-22T08:59:54;26.60;91.60
8105;DHT22;4095;48.942;9.104;2022-07-22T09:02:21;26.70;91.80
8105;DHT22;4095;48.942;9.104;2022-07-22T09:04:57;26.80;91.50
8105;DHT22;4095;48.942;9.104;2022-07-22T09:07:34;26.90;92.00
8105;DHT22;4095;48.942;9.104;2022-07-22T09:10:00;27.00;91.30
8105;DHT22;4095;48.942;9.104;2022-07-22T09:12:27;27.10;90.80
8105;DHT22;4095;48.942;9.104;2022-07-22T09:14:58;27.00;90.60
8105;DHT22;4095;48.942;9.104;2022-07-22T09:17:29;27.10;91.10
8105;DHT22;4095;48.942;9.104;2022-07-22T09:19:56;27.20;91.00
8105;DHT22;4095;48.942;9.104;2022-07-22T09:25:33;27.40;91.20
8105;DHT22;4095;48.942;9.104;2022-07-22T09:30:31;27.60;90.50
8105;DHT22;4095;48.942;9.104;2022-07-22T09:32:57;27.70;90.50
8105;DHT22;4095;48.942;9.104;2022-07-22T09:35:23;27.70;89.20
8105;DHT22;4095;48.942;9.104;2022-07-22T09:37:50;27.70;90.40
8105;DHT22;4095;48.942;9.104;2022-07-22T09:40:21;27.70;89.70
8105;DHT22;4095;48.942;9.104;2022-07-22T09:42:53;27.70;88.50
8105;DHT22;4095;48.942;9.104;2022-07-22T09:45:22;27.80;89.40
8105;DHT22;4095;48.942;9.104;2022-07-22T09:47:48;27.80;88.40
8105;DHT22;4095;48.942;9.104;2022-07-22T09:50:18;27.90;88.30
8105;DHT22;4095;48.942;9.104;2022-07-22T09:52:45;28.10;90.00
8105;DHT22;4095;48.942;9.104;2022-07-22T09:55:13;28.30;88.30
8105;DHT22;4095;48.942;9.104;2022-07-22T09:57:39;28.40;86.30
8105;DHT22;4095;48.942;9.104;2022-07-22T10:00:06;28.50;87.70
8105;DHT22;4095;48.942;9.104;2022-07-22T10:05:12;28.60;86.60
8105;DHT22;4095;48.942;9.104;2022-07-22T10:07:42;28.70;88.30
8105;DHT22;4095;48.942;9.104;2022-07-22T10:10:10;28.90;86.20
8105;DHT22;4095;48.942;9.104;2022-07-22T10:12:36;29.00;86.90
8105;DHT22;4095;48.942;9.104;2022-07-22T10:15:04;29.10;85.60
8105;DHT22;4095;48.942;9.104;2022-07-22T10:17:30;29.20;86.20
8105;DHT22;4095;48.942;9.104;2022-07-22T10:19:57;29.40;85.20
8105;DHT22;4095;48.942;9.104;2022-07-22T10:25:08;29.40;83.40
8105;DHT22;4095;48.942;9.104;2022-07-22T10:30:27;29.60;84.80
8105;DHT22;4095;48.942;9.104;2022-07-22T10:33:11;29.80;83.30
8105;DHT22;4095;48.942;9.104;2022-07-22T10:38:11;30.00;83.50
8105;DHT22;4095;48.942;9.104;2022-07-22T10:40:58;30.10;82.20
8105;DHT22;4095;48.942;9.104;2022-07-22T10:43:26;30.30;82.30
8105;DHT22;4095;48.942;9.104;2022-07-22T10:45:59;30.30;81.30
8105;DHT22;4095;48.942;9.104;2022-07-22T10:53:42;30.60;80.90
8105;DHT22;4095;48.942;9.104;2022-07-22T10:56:15;30.70;80.80
8105;DHT22;4095;48.942;9.104;2022-07-22T10:58:42;30.70;80.30
8105;DHT22;4095;48.942;9.104;2022-07-22T11:01:11;30.80;80.70
8105;DHT22;4095;48.942;9.104;2022-07-22T11:03:39;30.80;79.30
8105;DHT22;4095;48.942;9.104;2022-07-22T11:08:55;31.00;79.90
8105;DHT22;4095;48.942;9.104;2022-07-22T11:11:36;31.20;78.60
8105;DHT22;4095;48.942;9.104;2022-07-22T11:16:38;31.30;76.30
8105;DHT22;4095;48.942;9.104;2022-07-22T11:19:04;31.20;76.00
8105;DHT22;4095;48.942;9.104;2022-07-22T11:21:32;31.30;77.80
8105;DHT22;4095;48.942;9.104;2022-07-22T11:24:00;31.40;77.80
8105;DHT22;4095;48.942;9.104;2022-07-22T11:26:44;31.60;77.50
8105;DHT22;4095;48.942;9.104;2022-07-22T11:29:15;31.70;77.20
8105;DHT22;4095;48.942;9.104;2022-07-22T11:31:41;31.80;76.90
8105;DHT22;4095;48.942;9.104;2022-07-22T11:34:09;31.90;74.50
8105;DHT22;4095;48.942;9.104;2022-07-22T11:36:37;31.80;73.90
8105;DHT22;4095;48.942;9.104;2022-07-22T11:39:04;31.80;76.20
8105;DHT22;4095;48.942;9.104;2022-07-22T11:41:31;31.90;76.90
8105;DHT22;4095;48.942;9.104;2022-07-22T11:43:57;32.10;76.30
8105;DHT22;4095;48.942;9.104;2022-07-22T11:46:23;32.20;76.00
8105;DHT22;4095;48.942;9.104;2022-07-22T11:48:52;32.30;75.50
8105;DHT22;4095;48.942;9.104;2022-07-22T11:51:18;32.40;74.80
8105;DHT22;4095;48.942;9.104;2022-07-22T11:53:44;32.40;74.00
8105;DHT22;4095;48.942;9.104;2022-07-22T11:56:10;32.40;73.60
8105;DHT22;4095;48.942;9.104;2022-07-22T11:58:45;32.40;75.20
8105;DHT22;4095;48.942;9.104;2022-07-22T12:01:13;32.40;73.00
8105;DHT22;4095;48.942;9.104;2022-07-22T12:03:41;32.50;74.70
8105;DHT22;4095;48.942;9.104;2022-07-22T12:06:11;32.50;71.80
8105;DHT22;4095;48.942;9.104;2022-07-22T12:08:42;32.50;72.80
8105;DHT22;4095;48.942;9.104;2022-07-22T12:11:10;32.50;72.40
8105;DHT22;4095;48.942;9.104;2022-07-22T12:13:41;32.50;73.60
8105;DHT22;4095;48.942;9.104;2022-07-22T12:18:43;32.70;72.60
8105;DHT22;4095;48.942;9.104;2022-07-22T12:21:09;32.70;72.60
8105;DHT22;4095;48.942;9.104;2022-07-22T12:23:34;32.80;72.10
8105;DHT22;4095;48.942;9.104;2022-07-22T12:26:01;32.80;71.80
8105;DHT22;4095;48.942;9.104;2022-07-22T12:28:27;32.90;70.90
8105;DHT22;4095;48.942;9.104;2022-07-22T12:30:55;32.90;70.90
8105;DHT22;4095;48.942;9.104;2022-07-22T12:33:22;32.90;70.10
8105;DHT22;4095;48.942;9.104;2022-07-22T12:36:06;32.90;71.60
8105;DHT22;4095;48.942;9.104;2022-07-22T12:38:33;33.00;71.80
8105;DHT22;4095;48.942;9.104;2022-07-22T12:41:24;33.00;71.60
8105;DHT22;4095;48.942;9.104;2022-07-22T12:43:51;33.10;72.30
8105;DHT22;4095;48.942;9.104;2022-07-22T12:46:17;33.20;72.30
8105;DHT22;4095;48.942;9.104;2022-07-22T12:48:53;33.20;69.80
8105;DHT22;4095;48.942;9.104;2022-07-22T12:51:19;33.20;69.40
8105;DHT22;4095;48.942;9.104;2022-07-22T12:53:45;33.20;71.50
8105;DHT22;4095;48.942;9.104;2022-07-22T12:56:11;33.20;69.80
8105;DHT22;4095;48.942;9.104;2022-07-22T12:58:37;33.20;70.20
8105;DHT22;4095;48.942;9.104;2022-07-22T13:01:05;33.20;69.60
8105;DHT22;4095;48.942;9.104;2022-07-22T13:03:31;33.10;70.30
8105;DHT22;4095;48.942;9.104;2022-07-22T13:06:01;33.10;68.90
8105;DHT22;4095;48.942;9.104;2022-07-22T13:08:28;33.00;69.10
8105;DHT22;4095;48.942;9.104;2022-07-22T13:10:55;32.90;69.40
8105;DHT22;4095;48.942;9.104;2022-07-22T13:13:22;32.80;67.70
8105;DHT22;4095;48.942;9.104;2022-07-22T13:15:49;32.70;67.50
8105;DHT22;4095;48.942;9.104;2022-07-22T13:18:15;32.60;69.80
8105;DHT22;4095;48.942;9.104;2022-07-22T13:20:41;32.50;70.20
8105;DHT22;4095;48.942;9.104;2022-07-22T13:23:07;32.50;69.80
8105;DHT22;4095;48.942;9.104;2022-07-22T13:25:33;32.50;70.30
8105;DHT22;4095;48.942;9.104;2022-07-22T13:27:59;32.50;69.90
8105;DHT22;4095;48.942;9.104;2022-07-22T13:30:25;32.30;68.40
8105;DHT22;4095;48.942;9.104;2022-07-22T13:32:51;32.30;70.90
8105;DHT22;4095;48.942;9.104;2022-07-22T13:35:17;32.20;69.20
8105;DHT22;4095;48.942;9.104;2022-07-22T13:37:47;32.10;69.40
8105;DHT22;4095;48.942;9.104;2022-07-22T13:40:13;32.10;69.60
8105;DHT22;4095;48.942;9.104;2022-07-22T13:42:38;32.00;70.70
8105;DHT22;4095;48.942;9.104;2022-07-22T13:45:05;32.00;70.20
8105;DHT22;4095;48.942;9.104;2022-07-22T13:47:31;32.00;71.30
8105;DHT22;4095;48.942;9.104;2022-07-22T13:49:57;31.90;69.20
8105;DHT22;4095;48.942;9.104;2022-07-22T13:52:23;31.90;70.70
8105;DHT22;4095;48.942;9.104;2022-07-22T13:54:49;31.90;69.80
8105;DHT22;4095;48.942;9.104;2022-07-22T13:57:17;31.80;68.50
8105;DHT22;4095;48.942;9.104;2022-07-22T13:59:44;31.80;69.80
8105;DHT22;4095;48.942;9.104;2022-07-22T14:02:09;31.80;69.50
8105;DHT22;4095;48.942;9.104;2022-07-22T14:04:35;31.70;69.20
8105;DHT22;4095;48.942;9.104;2022-07-22T14:07:01;31.70;68.90
8105;DHT22;4095;48.942;9.104;2022-07-22T14:09:26;31.70;69.20
8105;DHT22;4095;48.942;9.104;2022-07-22T14:11:52;31.70;69.30
8105;DHT22;4095;48.942;9.104;2022-07-22T14:14:18;31.60;68.30
8105;DHT22;4095;48.942;9.104;2022-07-22T14:16:43;31.60;69.10
8105;DHT22;4095;48.942;9.104;2022-07-22T14:19:14;31.60;69.50
8105;DHT22;4095;48.942;9.104;2022-07-22T14:21:42;31.60;69.40
8105;DHT22;4095;48.942;9.104;2022-07-22T14:24:09;31.60;69.80
8105;DHT22;4095;48.942;9.104;2022-07-22T14:26:35;31.60;69.60
8105;DHT22;4095;48.942;9.104;2022-07-22T14:29:03;31.60;69.00
8105;DHT22;4095;48.942;9.104;2022-07-22T14:31:31;31.60;70.00
8105;DHT22;4095;48.942;9.104;2022-07-22T14:33:57;31.60;70.20
8105;DHT22;4095;48.942;9.104;2022-07-22T14:36:22;31.70;70.00
8105;DHT22;4095;48.942;9.104;2022-07-22T14:38:48;31.60;68.50
8105;DHT22;4095;48.942;9.104;2022-07-22T14:41:19;31.60;69.00
8105;DHT22;4095;48.942;9.104;2022-07-22T14:43:45;31.70;69.80
8105;DHT22;4095;48.942;9.104;2022-07-22T14:46:10;31.70;69.60
8105;DHT22;4095;48.942;9.104;2022-07-22T14:48:37;31.60;68.70
8105;DHT22;4095;48.942;9.104;2022-07-22T14:51:03;31.50;68.90
8105;DHT22;4095;48.942;9.104;2022-07-22T14:53:29;31.50;68.90
8105;DHT22;4095;48.942;9.104;2022-07-22T14:55:54;31.50;69.10
8105;DHT22;4095;48.942;9.104;2022-07-22T14:58:20;31.50;68.40
8105;DHT22;4095;48.942;9.104;2022-07-22T15:00:46;31.60;69.20
8105;DHT22;4095;48.942;9.104;2022-07-22T15:03:12;31.50;68.70
8105;DHT22;4095;48.942;9.104;2022-07-22T15:05:38;31.50;69.00
8105;DHT22;4095;48.942;9.104;2022-07-22T15:08:06;31.60;69.20
8105;DHT22;4095;48.942;9.104;2022-07-22T15:10:32;31.50;69.10
8105;DHT22;4095;48.942;9.104;2022-07-22T15:13:00;31.50;69.10
8105;DHT22;4095;48.942;9.104;2022-07-22T15:15:26;31.50;68.60
8105;DHT22;4095;48.942;9.104;2022-07-22T15:17:51;31.50;68.40
8105;DHT22;4095;48.942;9.104;2022-07-22T15:20:17;31.50;68.90
8105;DHT22;4095;48.942;9.104;2022-07-22T15:22:43;31.50;68.70
8105;DHT22;4095;48.942;9.104;2022-07-22T15:25:08;31.50;67.60
8105;DHT22;4095;48.942;9.104;2022-07-22T15:27:35;31.50;69.00
8105;DHT22;4095;48.942;9.104;2022-07-22T15:30:05;31.50;68.30
8105;DHT22;4095;48.942;9.104;2022-07-22T15:32:30;31.50;68.00
8105;DHT22;4095;48.942;9.104;2022-07-22T15:34:56;31.50;69.20
8105;DHT22;4095;48.942;9.104;2022-07-22T15:37:22;31.50;68.50
8105;DHT22;4095;48.942;9.104;2022-07-22T15:39:49;31.50;68.70
8105;DHT22;4095;48.942;9.104;2022-07-22T15:42:14;31.60;68.20
8105;DHT22;4095;48.942;9.104;2022-07-22T15:44:41;31.60;67.90
8105;DHT22;4095;48.942;9.104;2022-07-22T15:47:06;31.60;68.20
8105;DHT22;4095;48.942;9.104;2022-07-22T15:49:32;31.60;69.20
8105;DHT22;4095;48.942;9.104;2022-07-22T15:51:57;31.60;66.70
8105;DHT22;4095;48.942;9.104;2022-07-22T15:54:25;31.50;67.30
8105;DHT22;4095;48.942;9.104;2022-07-22T15:56:50;31.50;68.00
8105;DHT22;4095;48.942;9.104;2022-07-22T15:59:16;31.50;68.20
8105;DHT22;4095;48.942;9.104;2022-07-22T16:01:57;31.50;68.40
8105;DHT22;4095;48.942;9.104;2022-07-22T16:04:22;31.50;68.90
8105;DHT22;4095;48.942;9.104;2022-07-22T16:06:48;31.50;68.50
8105;DHT22;4095;48.942;9.104;2022-07-22T16:09:14;31.60;69.50
8105;DHT22;4095;48.942;9.104;2022-07-22T16:11:39;31.50;69.10
8105;DHT22;4095;48.942;9.104;2022-07-22T16:14:05;31.50;68.40
8105;DHT22;4095;48.942;9.104;2022-07-22T16:16:31;31.60;70.00
8105;DHT22;4095;48.942;9.104;2022-07-22T16:18:57;31.50;70.60
8105;DHT22;4095;48.942;9.104;2022-07-22T16:21:22;31.50;70.60
8105;DHT22;4095;48.942;9.104;2022-07-22T16:23:48;31.50;70.10
8105;DHT22;4095;48.942;9.104;2022-07-22T16:26:13;31.50;69.70
8105;DHT22;4095;48.942;9.104;2022-07-22T16:28:39;31.50;69.60
8105;DHT22;4095;48.942;9.104;2022-07-22T16:31:11;31.50;69.80